METAR Data

Data at: 0940 UTC 23 Jul 2019

METAR for:KSDL (Scottsdale Muni, AZ, US)
Text:KSDL 230853Z AUTO 00000KT 10SM CLR 27/20 A3007 RMK AO2 SLP153 T02720200 55007
Temperature: 27.2°C ( 81°F)
Dewpoint: 20.0°C ( 68°F) [RH = 65%]
Pressure (altimeter):30.07 inches Hg (1018.4 mb) [Sea level pressure: 1015.3 mb]
Winds:calm
Visibility:10 or more sm (16+ km)
Ceiling:at least 12,000 feet AGL
Clouds:sky clear below 12,000 feet AGL
QC Flag:automated observation with no human augmentation